DOC33 ENBG-ENBG
Flight info
| Callsign | DOC33 |
|---|---|
| Flight time | 0h 40m |
| Altitude | 1500 |
| Route | HEMS |
| Aircraft | EC45/L-V/N |
Departure
| Time | 2026-04-30 18:37 |
|---|---|
| Airport | Grønneviksøren (Haukeland Sykehus) Heliport (ENBG) |
Arrival
| Time | 2026-04-30 19:17 |
|---|---|
| Airport | Grønneviksøren (Haukeland Sykehus) Heliport (ENBG) |
| Time | Latitude | Longitude | Altitude | Speed | Heading |
|---|---|---|---|---|---|
| 2026-04-30 18:23 | 60.37987 | 5.34609 | 13 ft | 0 kts | 55° |
| 2026-04-30 18:36 | 60.38087 | 5.34812 | 142 ft | 43 kts | 50° |
| 2026-04-30 18:36 | 60.38423 | 5.34547 | 308 ft | 69 kts | 284° |
| 2026-04-30 18:36 | 60.37782 | 5.33985 | 514 ft | 87 kts | 167° |
| 2026-04-30 18:37 | 60.37546 | 5.34139 | 558 ft | 90 kts | 161° |
| 2026-04-30 18:37 | 60.36951 | 5.34588 | 682 ft | 94 kts | 161° |
| 2026-04-30 18:37 | 60.36299 | 5.34853 | 801 ft | 97 kts | 179° |
| 2026-04-30 18:38 | 60.35606 | 5.34807 | 884 ft | 102 kts | 185° |
| 2026-04-30 18:38 | 60.34898 | 5.34415 | 892 ft | 110 kts | 197° |
| 2026-04-30 18:38 | 60.34130 | 5.33927 | 785 ft | 121 kts | 195° |
| 2026-04-30 18:38 | 60.33307 | 5.33453 | 728 ft | 121 kts | 194° |
| 2026-04-30 18:39 | 60.32508 | 5.33044 | 805 ft | 113 kts | 192° |
| 2026-04-30 18:39 | 60.31786 | 5.32729 | 955 ft | 105 kts | 190° |
| 2026-04-30 18:39 | 60.31061 | 5.32440 | 1007 ft | 107 kts | 189° |
| 2026-04-30 18:39 | 60.30324 | 5.32163 | 1046 ft | 109 kts | 189° |
| 2026-04-30 18:40 | 60.29572 | 5.31898 | 1091 ft | 110 kts | 188° |
| 2026-04-30 18:40 | 60.28807 | 5.31648 | 1101 ft | 113 kts | 188° |
| 2026-04-30 18:40 | 60.28016 | 5.31399 | 1091 ft | 116 kts | 187° |
| 2026-04-30 18:40 | 60.27213 | 5.31099 | 1058 ft | 119 kts | 194° |
| 2026-04-30 18:41 | 60.26416 | 5.30628 | 1034 ft | 120 kts | 195° |
| 2026-04-30 18:41 | 60.25614 | 5.30136 | 1022 ft | 120 kts | 196° |
| 2026-04-30 18:41 | 60.24813 | 5.29616 | 1000 ft | 121 kts | 197° |
| 2026-04-30 18:41 | 60.24017 | 5.29079 | 983 ft | 121 kts | 197° |
| 2026-04-30 18:42 | 60.23231 | 5.28530 | 935 ft | 121 kts | 198° |
| 2026-04-30 18:42 | 60.21644 | 5.27356 | 861 ft | 122 kts | 199° |
| 2026-04-30 18:42 | 60.20851 | 5.26738 | 834 ft | 122 kts | 200° |
| 2026-04-30 18:45 | 60.13642 | 5.19865 | 1142 ft | 118 kts | 192° |
| 2026-04-30 18:45 | 60.12830 | 5.19515 | 1107 ft | 120 kts | 190° |
| 2026-04-30 18:45 | 60.11996 | 5.19341 | 1082 ft | 121 kts | 182° |
| 2026-04-30 18:46 | 60.11158 | 5.19247 | 1056 ft | 120 kts | 182° |
| 2026-04-30 18:46 | 60.10319 | 5.19166 | 1032 ft | 120 kts | 182° |
| 2026-04-30 18:46 | 60.09481 | 5.19104 | 1010 ft | 121 kts | 181° |
| 2026-04-30 18:46 | 60.08639 | 5.19058 | 992 ft | 120 kts | 181° |
| 2026-04-30 18:47 | 60.07802 | 5.19028 | 972 ft | 120 kts | 180° |
| 2026-04-30 18:47 | 60.06974 | 5.19018 | 953 ft | 120 kts | 180° |
| 2026-04-30 18:47 | 60.06138 | 5.19025 | 936 ft | 120 kts | 179° |
| 2026-04-30 18:47 | 60.05303 | 5.19053 | 924 ft | 120 kts | 179° |
| 2026-04-30 18:48 | 60.04464 | 5.19096 | 896 ft | 121 kts | 178° |
| 2026-04-30 18:48 | 60.03609 | 5.19134 | 838 ft | 124 kts | 180° |
| 2026-04-30 18:48 | 60.02755 | 5.19267 | 779 ft | 121 kts | 164° |
| 2026-04-30 18:48 | 60.01974 | 5.19857 | 695 ft | 117 kts | 157° |
| 2026-04-30 18:49 | 60.01276 | 5.20516 | 747 ft | 105 kts | 154° |
| 2026-04-30 18:49 | 60.00663 | 5.20514 | 887 ft | 85 kts | 220° |
| 2026-04-30 18:49 | 60.00585 | 5.19378 | 900 ft | 99 kts | 295° |
| 2026-04-30 18:49 | 60.01172 | 5.18445 | 737 ft | 118 kts | 341° |
| 2026-04-30 18:50 | 60.01216 | 5.18418 | 737 ft | 118 kts | 343° |
| 2026-04-30 18:50 | 60.01651 | 5.18409 | 768 ft | 113 kts | 17° |
| 2026-04-30 18:50 | 60.02053 | 5.19523 | 830 ft | 100 kts | 99° |
| 2026-04-30 18:51 | 60.01625 | 5.20163 | 922 ft | 76 kts | 191° |
| 2026-04-30 18:51 | 60.01177 | 5.19910 | 772 ft | 72 kts | 199° |
| 2026-04-30 18:51 | 60.00869 | 5.19588 | 672 ft | 60 kts | 229° |
| 2026-04-30 18:51 | 60.00779 | 5.19360 | 658 ft | 57 kts | 227° |
| 2026-04-30 18:52 | 60.00756 | 5.18780 | 563 ft | 35 kts | 10° |
| 2026-04-30 18:52 | 60.00892 | 5.19069 | 368 ft | 39 kts | 56° |
| 2026-04-30 18:52 | 60.01000 | 5.19605 | 284 ft | 32 kts | 4° |
| 2026-04-30 18:52 | 60.01073 | 5.19641 | 144 ft | 1 kts | 287° |
| 2026-04-30 18:53 | 60.01075 | 5.19639 | 139 ft | 0 kts | 278° |
| 2026-04-30 19:05 | 60.01192 | 5.19544 | 324 ft | 50 kts | 345° |
| 2026-04-30 19:06 | 60.02516 | 5.19765 | 228 ft | 121 kts | 6° |
| 2026-04-30 19:06 | 60.03345 | 5.19960 | 341 ft | 114 kts | 7° |
| 2026-04-30 19:06 | 60.04718 | 5.20354 | 879 ft | 92 kts | 9° |
| 2026-04-30 19:07 | 60.05974 | 5.20852 | 1308 ft | 92 kts | 14° |
| 2026-04-30 19:07 | 60.06643 | 5.21195 | 1365 ft | 108 kts | 15° |
| 2026-04-30 19:08 | 60.08286 | 5.21726 | 1230 ft | 131 kts | 356° |
| 2026-04-30 19:08 | 60.10118 | 5.21278 | 1099 ft | 136 kts | 352° |
| 2026-04-30 19:08 | 60.11049 | 5.20988 | 1053 ft | 134 kts | 351° |
| 2026-04-30 19:09 | 60.12842 | 5.20307 | 989 ft | 129 kts | 348° |
| 2026-04-30 19:09 | 60.13699 | 5.19915 | 1030 ft | 124 kts | 347° |
| 2026-04-30 19:09 | 60.14520 | 5.19499 | 1099 ft | 120 kts | 346° |
| 2026-04-30 19:10 | 60.16133 | 5.18596 | 1143 ft | 123 kts | 343° |
| 2026-04-30 19:10 | 60.17796 | 5.18427 | 1107 ft | 125 kts | 20° |
| 2026-04-30 19:11 | 60.18600 | 5.19039 | 1104 ft | 125 kts | 22° |
| 2026-04-30 19:11 | 60.20234 | 5.20208 | 1098 ft | 125 kts | 20° |
| 2026-04-30 19:11 | 60.21064 | 5.20748 | 1097 ft | 125 kts | 19° |
| 2026-04-30 19:12 | 60.21897 | 5.21256 | 1094 ft | 125 kts | 18° |
| 2026-04-30 19:12 | 60.22734 | 5.21729 | 1094 ft | 125 kts | 16° |
| 2026-04-30 19:12 | 60.23576 | 5.22176 | 1094 ft | 125 kts | 16° |
| 2026-04-30 19:13 | 60.25207 | 5.23319 | 1103 ft | 123 kts | 22° |
| 2026-04-30 19:13 | 60.26540 | 5.24300 | 1168 ft | 120 kts | 21° |
| 2026-04-30 19:13 | 60.27309 | 5.24941 | 1219 ft | 119 kts | 26° |
| 2026-04-30 19:14 | 60.28048 | 5.25668 | 1270 ft | 118 kts | 28° |
| 2026-04-30 19:14 | 60.28777 | 5.26405 | 1326 ft | 117 kts | 28° |
| 2026-04-30 19:14 | 60.29488 | 5.27142 | 1385 ft | 116 kts | 29° |
| 2026-04-30 19:14 | 60.30192 | 5.27958 | 1449 ft | 116 kts | 33° |
| 2026-04-30 19:15 | 60.30882 | 5.28813 | 1497 ft | 117 kts | 33° |
| 2026-04-30 19:15 | 60.32292 | 5.30540 | 1554 ft | 119 kts | 32° |
| 2026-04-30 19:15 | 60.33012 | 5.31405 | 1577 ft | 121 kts | 32° |
| 2026-04-30 19:16 | 60.33739 | 5.32268 | 1613 ft | 121 kts | 32° |
| 2026-04-30 19:16 | 60.34493 | 5.33075 | 1616 ft | 124 kts | 27° |
| 2026-04-30 19:16 | 60.35118 | 5.33698 | 1561 ft | 125 kts | 26° |
| 2026-04-30 19:17 | 60.35951 | 5.34320 | 1381 ft | 129 kts | 19° |
| 2026-04-30 19:17 | 60.37114 | 5.35581 | 784 ft | 36 kts | 24° |
| 2026-04-30 19:17 | 60.37226 | 5.35776 | 348 ft | 17 kts | 12° |